Terminal Aerodrome Forecast
Issued by NWS

Home | Current Version | Previous Version | Graphics & Text | Print | Product List | Glossary On
Versions: 1 2 3 4 5 6 7 8 9 10 11 12 13 14 15 16 17 18 19 20 21 22 23 24 25
507
FTUS43 KMPX 240950 AAB
TAFRNH
TAF AMD
KRNH 240950Z 2410/2506 32005KT P6SM SCT012 BKN026
      TEMPO 2410/2412 6SM -DZ BR BKN012
     FM241200 29007KT P6SM SCT015 SCT060
     FM241500 29010G17KT P6SM SCT040
     FM250100 29006KT P6SM FEW250=

USA.gov is the U.S. government's official web portal to all federal, state and local government web resources and services.